.
WxDataArchive / Data Records for 2008-09-28
2008-09-27 September 2008 2008-09-29

Data Records for Sunday, 28 September 2008

Time	Temp	Chill	HIndex	Humid	Dewpt	 Wind 	HiWind	WindDir	Rain 	Barom 
-----	----	-----	------	-----	-----	------	------	-------	-----	----- 
00:00	55.0	55.0	55.0	94	53.3	0	0	---	0.00	30.003 
00:05	54.8	54.8	54.8	94	53.1	0	0	---	0.00	30.002 
00:10	54.8	54.8	54.8	95	53.4	0	0	---	0.00	29.999 
00:15	54.7	54.7	54.7	94	53.0	0	0	---	0.00	29.995 
00:20	54.5	54.5	54.5	94	52.8	0	0	---	0.00	29.994 
00:25	54.4	54.4	54.4	95	53.0	0	0	---	0.00	29.995 
00:30	54.4	54.4	54.4	95	53.0	0	0	---	0.00	29.994 
00:35	54.2	54.2	54.2	95	52.8	0	0	---	0.00	29.993 
00:40	54.1	54.1	54.1	95	52.7	0	0	---	0.00	29.993 
00:45	54.1	54.1	54.1	95	52.7	0	0	---	0.00	29.993 
00:50	53.9	53.9	53.9	95	52.5	0	0	---	0.00	29.993 
00:55	53.8	53.8	53.8	95	52.4	0	0	---	0.00	29.994 
01:00	53.6	53.6	53.6	95	52.2	0	0	---	0.00	29.995 
01:05	53.6	53.6	53.6	95	52.2	0	0	---	0.00	29.995 
01:10	53.5	53.5	53.5	95	52.1	0	0	---	0.00	29.996 
01:15	53.5	53.5	53.5	95	52.1	0	0	---	0.00	29.998 
01:20	53.5	53.5	53.5	95	52.1	0	0	---	0.00	29.999 
01:25	53.5	53.5	53.5	95	52.1	0	0	---	0.00	30.001 
01:30	53.5	53.5	53.5	95	52.1	0	0	---	0.00	30.000 
01:35	53.5	53.5	53.5	95	52.1	0	0	---	0.00	29.998 
01:40	53.3	53.3	53.3	95	51.9	0	0	---	0.00	29.996 
01:45	53.3	53.3	53.3	96	52.2	0	0	---	0.00	29.995 
01:50	53.2	53.2	53.2	95	51.8	0	0	---	0.00	29.996 
01:55	53.1	53.1	53.1	95	51.7	0	0	---	0.00	29.995 
02:00	53.1	53.1	53.1	96	52.0	0	0	---	0.00	29.995 
02:05	52.9	52.9	52.9	96	51.8	0	0	---	0.00	29.994 
02:10	52.9	52.9	52.9	96	51.8	0	0	---	0.00	29.994 
02:15	52.8	52.8	52.8	96	51.7	0	0	---	0.00	29.994 
02:20	52.8	52.8	52.8	96	51.7	0	0	---	0.00	29.993 
02:25	52.6	52.6	52.6	96	51.5	0	0	---	0.00	29.993 
02:30	52.5	52.5	52.5	96	51.4	0	0	---	0.00	29.993 
02:35	52.5	52.5	52.5	96	51.4	0	0	---	0.00	29.991 
02:40	52.3	52.3	52.3	96	51.2	0	0	---	0.00	29.991 
02:45	52.3	52.3	52.3	96	51.2	0	0	---	0.00	29.992 
02:50	52.2	52.2	52.2	96	51.1	0	0	---	0.00	29.991 
02:55	52.2	52.2	52.2	96	51.1	0	0	---	0.00	29.992 
03:00	52.0	52.0	52.0	96	50.9	0	0	---	0.00	29.991 
03:05	52.0	52.0	52.0	96	50.9	0	0	---	0.00	29.988 
03:10	51.9	51.9	51.9	96	50.8	0	0	---	0.00	29.987 
03:15	51.7	51.7	51.7	96	50.6	0	0	---	0.00	29.985 
03:20	51.7	51.7	51.7	96	50.6	0	0	---	0.00	29.990 
03:25	51.9	51.9	51.9	96	50.8	0	0	---	0.00	29.993 
03:30	52.0	52.0	52.0	96	50.9	0	0	---	0.00	29.991 
03:35	52.0	52.0	52.0	96	50.9	0	0	---	0.00	29.988 
03:40	51.9	51.9	51.9	96	50.8	0	0	---	0.00	29.986 
03:45	51.7	51.7	51.7	96	50.6	0	0	---	0.00	29.984 
03:50	51.6	51.6	51.6	96	50.5	0	0	---	0.00	29.984 
03:55	51.6	51.6	51.6	96	50.5	0	0	---	0.00	29.986 
04:00	51.6	51.6	51.6	96	50.5	0	0	---	0.00	29.991 
04:05	51.6	51.6	51.6	96	50.5	0	0	---	0.00	29.994 
04:10	51.4	51.4	51.4	96	50.3	0	0	---	0.00	29.994 
04:15	51.4	51.4	51.4	96	50.3	0	0	---	0.00	29.998 
04:20	51.3	51.3	51.3	96	50.2	0	0	---	0.00	29.999 
04:25	51.4	51.4	51.4	96	50.3	0	0	---	0.00	30.000 
04:30	51.7	51.7	51.7	96	50.6	0	0	---	0.00	30.000 
04:35	52.0	52.0	52.0	96	50.9	0	0	---	0.00	30.003 
04:40	52.5	52.5	52.5	96	51.4	0	0	---	0.00	30.006 
04:45	52.9	52.9	52.9	96	51.8	0	0	---	0.00	30.007 
04:50	52.9	52.9	52.9	96	51.8	0	0	---	0.00	30.008 
04:55	52.9	52.9	52.9	96	51.8	0	0	---	0.00	30.012 
05:00	52.8	52.8	52.8	96	51.7	0	0	---	0.00	30.013 
05:05	52.6	52.6	52.6	96	51.5	0	0	---	0.00	30.014 
05:10	52.5	52.5	52.5	96	51.4	0	0	---	0.00	30.017 
05:15	52.5	52.5	52.5	96	51.4	0	0	---	0.00	30.019 
05:20	52.8	52.8	52.8	96	51.7	0	0	---	0.00	30.020 
05:25	53.2	53.2	53.2	97	52.4	0	0	---	0.00	30.020 
05:30	53.2	53.2	53.2	96	52.1	0	0	---	0.00	30.021 
05:35	53.2	53.2	53.2	96	52.1	0	0	---	0.00	30.022 
05:40	53.2	53.2	53.2	96	52.1	0	0	---	0.00	30.023 
05:45	53.2	53.2	53.2	96	52.1	0	0	---	0.00	30.025 
05:50	53.1	53.1	53.1	96	52.0	0	0	---	0.00	30.025 
05:55	52.9	52.9	52.9	96	51.8	0	0	---	0.00	30.023 
06:00	52.8	52.8	52.8	96	51.7	0	0	---	0.00	30.026 
06:05	52.5	52.5	52.5	96	51.4	0	0	---	0.00	30.032 
06:10	52.3	52.3	52.3	96	51.2	0	0	---	0.00	30.035 
06:15	52.2	52.2	52.2	96	51.1	0	0	---	0.00	30.034 
06:20	52.0	52.0	52.0	96	50.9	0	0	---	0.00	30.035 
06:25	51.9	51.9	51.9	96	50.8	0	0	---	0.00	30.035 
06:30	51.7	51.7	51.7	96	50.6	0	0	---	0.00	30.036 
06:35	51.7	51.7	51.7	96	50.6	0	0	---	0.00	30.036 
06:40	51.6	51.6	51.6	96	50.5	0	0	---	0.00	30.036 
06:45	51.4	51.4	51.4	96	50.3	0	0	---	0.00	30.036 
06:50	51.4	51.4	51.4	96	50.3	0	0	---	0.00	30.036 
06:55	51.6	51.6	51.6	96	50.5	0	0	---	0.00	30.037 
07:00	51.7	51.7	51.7	97	50.9	0	0	---	0.00	30.039 
07:05	51.9	51.9	51.9	97	51.1	0	0	---	0.00	30.044 
07:10	52.2	52.2	52.2	97	51.4	0	0	---	0.00	30.045 
07:15	52.5	52.5	52.5	97	51.7	0	0	---	0.00	30.045 
07:20	52.8	52.8	52.8	97	52.0	0	0	---	0.00	30.047 
07:25	53.2	53.2	53.2	97	52.4	0	0	---	0.00	30.048 
07:30	53.6	53.6	53.6	97	52.8	0	0	---	0.00	30.048 
07:35	54.1	54.1	54.1	97	53.3	0	0	---	0.00	30.051 
07:40	54.8	54.8	54.8	97	54.0	0	0	---	0.00	30.051 
07:45	55.4	55.4	55.4	97	54.6	0	0	---	0.00	30.051 
07:50	55.9	55.9	55.9	97	55.1	0	0	---	0.00	30.051 
07:55	56.3	56.3	56.3	97	55.5	0	1	135	0.00	30.052 
08:00	56.7	56.7	56.7	97	55.9	0	1	135	0.00	30.050 
08:05	56.9	56.9	56.9	97	56.1	0	2	135	0.00	30.054 
08:10	57.2	57.2	57.2	97	56.4	0	1	135	0.00	30.055 
08:15	57.6	57.6	57.6	97	56.8	0	1	135	0.00	30.055 
08:20	58.1	58.1	58.1	97	57.3	0	1	338	0.00	30.056 
08:25	58.6	58.6	58.6	97	57.7	0	1	338	0.00	30.057 
08:30	59.0	59.0	59.0	97	58.1	0	1	338	0.00	30.062 
08:35	59.5	59.5	59.5	96	58.4	0	1	338	0.00	30.063 
08:40	59.9	59.9	59.9	96	58.8	0	2	338	0.00	30.061 
08:45	60.5	60.5	60.5	95	59.1	0	1	338	0.00	30.062 
08:50	61.3	61.3	61.3	94	59.6	0	2	338	0.00	30.063 
08:55	61.8	61.8	61.8	92	59.4	0	1	338	0.00	30.062 
09:00	62.4	62.4	62.4	91	59.7	0	1	338	0.00	30.062 
09:05	62.9	62.9	62.9	89	59.6	0	0	---	0.00	30.064 
09:10	63.7	63.7	63.7	87	59.8	0	1	338	0.00	30.065 
09:15	64.3	64.3	64.3	84	59.4	0	1	338	0.00	30.064 
09:20	65.2	65.2	65.2	82	59.6	0	1	338	0.00	30.066 
09:25	65.6	65.6	65.6	77	58.2	0	1	338	0.00	30.065 
09:30	66.4	66.4	66.4	79	59.7	0	1	338	0.00	30.063 
09:35	67.1	67.1	67.1	75	58.9	0	1	338	0.00	30.063 
09:40	67.6	67.6	67.6	72	58.2	0	1	338	0.00	30.063 
09:45	68.3	68.3	68.3	73	59.3	0	1	338	0.00	30.061 
09:50	68.6	68.6	68.6	72	59.2	0	1	338	0.00	30.062 
09:55	69.3	69.3	69.3	70	59.1	0	1	338	0.00	30.063 
10:00	69.6	69.6	69.6	68	58.6	0	1	338	0.00	30.062 
10:05	69.9	69.9	69.9	66	58.0	0	1	338	0.00	30.062 
10:10	70.4	70.4	70.4	66	58.5	0	2	338	0.00	30.061 
10:15	71.3	71.3	71.3	64	58.5	0	2	0	0.00	30.062 
10:20	72.1	72.1	72.1	62	58.3	0	1	0	0.00	30.060 
10:25	72.8	72.8	72.8	60	58.1	0	1	0	0.00	30.060 
10:30	73.2	73.2	73.2	58	57.5	0	2	0	0.00	30.060 
10:35	73.7	73.7	73.7	54	56.0	0	3	0	0.00	30.058 
10:40	74.2	74.2	74.2	53	56.0	0	2	0	0.00	30.059 
10:45	74.6	74.6	74.6	51	55.3	1	3	22	0.00	30.058 
10:50	74.7	74.7	74.7	52	55.9	1	2	22	0.00	30.057 
10:55	74.9	74.9	74.9	50	55.0	0	2	22	0.00	30.056 
11:00	75.1	75.1	77.6	52	56.3	1	4	112	0.00	30.057 
11:05	75.3	75.3	77.7	48	54.2	1	5	112	0.00	30.057 
11:10	75.1	75.1	77.6	52	56.3	1	5	112	0.00	30.058 
11:15	75.3	75.3	77.7	55	58.0	0	1	112	0.00	30.058 
11:20	75.6	75.6	77.9	52	56.7	0	3	112	0.00	30.058 
11:25	76.0	76.0	78.0	46	53.7	1	3	112	0.00	30.058 
11:30	76.0	76.0	78.0	48	54.9	0	2	338	0.00	30.058 
11:35	76.0	76.0	78.1	49	55.4	1	3	90	0.00	30.058 
11:40	76.3	76.3	78.1	46	54.0	1	3	90	0.00	30.058 
11:45	76.5	76.5	78.3	48	55.3	1	3	248	0.00	30.057 
11:50	76.5	76.5	78.2	46	54.2	1	4	112	0.00	30.057 
11:55	76.7	76.7	78.4	48	55.5	1	3	112	0.00	30.057 
12:00	77.0	77.0	78.5	46	54.6	1	2	112	0.00	30.056 
12:05	76.8	76.8	78.4	46	54.4	1	5	112	0.00	30.057 
12:10	76.8	76.8	78.4	48	55.6	1	3	112	0.00	30.057 
12:15	77.0	77.0	78.5	46	54.6	0	3	112	0.00	30.057 
12:20	77.0	77.0	78.4	43	52.8	0	2	0	0.00	30.056 
12:25	77.4	77.4	78.6	45	54.4	0	2	0	0.00	30.054 
12:30	77.6	77.6	78.7	43	53.3	0	1	0	0.00	30.052 
12:35	77.6	77.6	78.8	45	54.6	0	1	0	0.00	30.050 
12:40	77.4	77.4	78.6	44	53.8	0	1	0	0.00	30.050 
12:45	77.6	77.6	78.8	47	55.8	0	1	0	0.00	30.047 
12:50	77.6	77.6	78.8	45	54.6	0	1	0	0.00	30.047 
12:55	77.6	77.6	78.7	44	53.9	0	2	0	0.00	30.046 
13:00	77.7	77.7	78.7	43	53.4	0	2	0	0.00	30.043 
13:05	77.7	77.7	78.6	41	52.1	1	4	270	0.00	30.043 
13:10	77.9	77.9	78.9	45	54.8	0	2	270	0.00	30.042 
13:15	77.7	77.7	78.7	43	53.4	0	2	270	0.00	30.041 
13:20	77.9	77.9	78.9	45	54.8	0	2	270	0.00	30.041 
13:25	78.3	78.3	79.3	47	56.4	1	3	270	0.00	30.038 
13:30	78.5	78.5	79.2	43	54.1	0	2	248	0.00	30.033 
13:35	78.8	78.8	79.4	44	55.0	0	1	270	0.00	30.028 
13:40	78.8	78.8	79.5	45	55.6	0	2	270	0.00	30.027 
13:45	78.8	78.8	79.5	45	55.6	0	2	158	0.00	30.025 
13:50	78.6	78.6	79.2	42	53.6	0	2	158	0.00	30.025 
13:55	78.6	78.6	79.4	46	56.1	0	2	158	0.00	30.024 
14:00	78.8	78.8	79.4	43	54.4	0	2	158	0.00	30.022 
14:05	78.8	78.8	79.2	41	53.1	0	2	248	0.00	30.023 
14:10	78.6	78.6	79.2	43	54.2	1	4	248	0.00	30.021 
14:15	78.6	78.6	79.2	43	54.2	1	3	248	0.00	30.022 
14:20	78.5	78.5	79.2	43	54.1	0	2	248	0.00	30.023 
14:25	78.5	78.5	79.2	44	54.7	1	3	248	0.00	30.023 
14:30	78.6	78.6	79.2	43	54.2	0	1	248	0.00	30.023 
14:35	78.3	78.3	79.1	43	53.9	0	3	248	0.00	30.023 
14:40	78.3	78.3	79.1	43	53.9	0	3	248	0.00	30.022 
14:45	78.6	78.6	79.3	44	54.8	0	1	248	0.00	30.020 
14:50	78.8	78.8	79.4	43	54.4	0	2	248	0.00	30.020 
14:55	78.8	78.8	79.4	43	54.4	0	1	248	0.00	30.021 
15:00	78.6	78.6	79.2	42	53.6	0	1	248	0.00	30.018 
15:05	78.8	78.8	79.5	45	55.6	0	2	248	0.00	30.017 
15:10	78.8	78.8	79.4	43	54.4	0	1	248	0.00	30.016 
15:15	78.5	78.5	79.3	45	55.4	0	1	248	0.00	30.014 
15:20	78.3	78.3	79.2	45	55.2	0	3	248	0.00	30.011 
15:25	78.3	78.3	79.2	46	55.8	0	5	68	0.00	30.011 
15:30	77.9	77.9	78.9	45	54.8	0	3	0	0.00	30.012 
15:35	77.4	77.4	78.7	47	55.6	0	1	0	0.00	30.012 
15:40	77.2	77.2	78.6	47	55.4	0	0	---	0.00	30.014 
15:45	77.0	77.0	78.5	48	55.8	0	1	0	0.00	30.014 
15:50	77.0	77.0	78.5	48	55.8	0	2	0	0.00	30.014 
15:55	77.0	77.0	78.5	46	54.6	0	3	315	0.00	30.013 
16:00	77.4	77.4	78.8	48	56.1	0	4	270	0.00	30.014 
16:05	77.6	77.6	78.8	45	54.6	0	1	270	0.00	30.012 
16:10	77.6	77.6	78.8	46	55.2	1	3	270	0.00	30.012 
16:15	77.4	77.4	78.6	45	54.4	0	3	270	0.00	30.011 
16:20	77.4	77.4	78.7	46	55.0	0	3	292	0.00	30.011 
16:25	77.4	77.4	78.6	45	54.4	0	1	270	0.00	30.012 
16:30	77.4	77.4	78.6	44	53.8	0	1	270	0.00	30.010 
16:35	77.2	77.2	78.6	46	54.8	0	2	315	0.00	30.011 
16:40	77.2	77.2	78.6	46	54.8	0	1	315	0.00	30.011 
16:45	77.0	77.0	78.4	45	54.0	0	2	315	0.00	30.010 
16:50	76.8	76.8	78.4	47	55.0	0	1	292	0.00	30.010 
16:55	76.7	76.7	78.4	47	54.9	0	1	292	0.00	30.010 
17:00	76.5	76.5	78.3	48	55.3	0	1	292	0.00	30.011 
17:05	76.3	76.3	78.2	48	55.1	0	2	292	0.00	30.011 
17:10	76.1	76.1	78.1	47	54.4	0	1	292	0.00	30.012 
17:15	76.1	76.1	78.1	48	55.0	0	1	292	0.00	30.013 
17:20	76.0	76.0	78.0	48	54.9	0	1	292	0.00	30.013 
17:25	75.8	75.8	78.0	48	54.7	0	1	292	0.00	30.013 
17:30	75.6	75.6	77.9	49	55.1	0	0	---	0.00	30.013 
17:35	75.3	75.3	77.7	50	55.4	0	1	292	0.00	30.015 
17:40	74.9	74.9	74.9	51	55.5	0	1	292	0.00	30.016 
17:45	74.6	74.6	74.6	51	55.3	0	1	292	0.00	30.016 
17:50	74.2	74.2	74.2	52	55.4	0	0	---	0.00	30.018 
17:55	73.9	73.9	73.9	52	55.1	0	0	---	0.00	30.019 
18:00	73.5	73.5	73.5	54	55.8	0	0	---	0.00	30.021 
18:05	73.2	73.2	73.2	54	55.5	0	0	---	0.00	30.024 
18:10	72.8	72.8	72.8	55	55.7	0	0	---	0.00	30.027 
18:15	72.5	72.5	72.5	56	55.9	0	0	---	0.00	30.028 
18:20	72.0	72.0	72.0	57	55.9	0	0	---	0.00	30.028 
18:25	71.6	71.6	71.6	58	56.0	0	0	---	0.00	30.030 
18:30	71.3	71.3	71.3	59	56.2	0	0	---	0.00	30.033 
18:35	70.8	70.8	70.8	60	56.2	0	0	---	0.00	30.033 
18:40	70.4	70.4	70.4	61	56.3	0	0	---	0.00	30.033 
18:45	70.1	70.1	70.1	62	56.5	0	0	---	0.00	30.034 
18:50	69.6	69.6	69.6	62	56.0	0	0	---	0.00	30.033 
18:55	69.4	69.4	69.4	63	56.2	0	0	---	0.00	30.036 
19:00	69.1	69.1	69.1	64	56.4	0	0	---	0.00	30.039 
19:05	68.8	68.8	68.8	65	56.5	0	0	---	0.00	30.036 
19:10	68.4	68.4	68.4	66	56.6	0	0	---	0.00	30.040 
19:15	68.4	68.4	68.4	66	56.6	0	1	292	0.00	30.041 
19:20	68.3	68.3	68.3	67	56.9	0	0	---	0.00	30.041 
19:25	68.1	68.1	68.1	67	56.7	0	0	---	0.00	30.044 
19:30	67.9	67.9	67.9	67	56.5	0	0	---	0.00	30.043 
19:35	67.8	67.8	67.8	68	56.8	0	0	---	0.00	30.043 
19:40	67.4	67.4	67.4	69	56.9	0	0	---	0.00	30.044 
19:45	67.1	67.1	67.1	69	56.6	0	0	---	0.00	30.046 
19:50	66.9	66.9	66.9	70	56.8	0	0	---	0.00	30.046 
19:55	66.8	66.8	66.8	70	56.7	0	1	292	0.00	30.048 
20:00	66.6	66.6	66.6	71	56.9	0	0	---	0.00	30.052 
20:05	66.4	66.4	66.4	72	57.1	0	0	---	0.00	30.051 
20:10	66.3	66.3	66.3	72	57.0	0	0	---	0.00	30.049 
20:15	66.1	66.1	66.1	73	57.2	0	0	---	0.00	30.050 
20:20	66.0	66.0	66.0	74	57.5	0	0	---	0.00	30.050 
20:25	65.8	65.8	65.8	75	57.6	0	1	292	0.00	30.052 
20:30	65.6	65.6	65.6	76	57.8	0	1	292	0.00	30.052 
20:35	65.6	65.6	65.6	76	57.8	0	1	292	0.00	30.054 
20:40	65.5	65.5	65.5	77	58.1	0	1	292	0.00	30.055 
20:45	65.3	65.3	65.3	78	58.3	0	1	292	0.00	30.059 
20:50	65.2	65.2	65.2	78	58.2	0	4	270	0.00	30.060 
20:55	65.0	65.0	65.0	79	58.3	0	1	270	0.00	30.060 
21:00	64.8	64.8	64.8	80	58.5	0	2	270	0.00	30.060 
21:05	64.8	64.8	64.8	80	58.5	0	1	270	0.00	30.055 
21:10	64.7	64.7	64.7	80	58.4	0	1	270	0.00	30.055 
21:15	64.5	64.5	64.5	81	58.5	0	0	---	0.00	30.055 
21:20	64.3	64.3	64.3	81	58.3	0	1	270	0.00	30.056 
21:25	64.3	64.3	64.3	81	58.3	0	1	270	0.00	30.054 
21:30	64.2	64.2	64.2	82	58.6	0	1	270	0.00	30.054 
21:35	64.0	64.0	64.0	82	58.4	0	1	270	0.00	30.053 
21:40	63.9	63.9	63.9	82	58.3	0	0	---	0.00	30.053 
21:45	63.7	63.7	63.7	83	58.4	0	0	---	0.00	30.052 
21:50	63.5	63.5	63.5	83	58.2	0	1	270	0.00	30.052 
21:55	63.4	63.4	63.4	83	58.1	0	0	---	0.00	30.053 
22:00	63.2	63.2	63.2	84	58.3	0	1	270	0.00	30.054 
22:05	63.1	63.1	63.1	84	58.2	0	1	270	0.00	30.049 
22:10	62.9	62.9	62.9	84	58.0	0	0	---	0.00	30.050 
22:15	62.9	62.9	62.9	84	58.0	0	0	---	0.00	30.051 
22:20	62.7	62.7	62.7	85	58.1	0	0	---	0.00	30.052 
22:25	62.6	62.6	62.6	85	58.0	0	1	270	0.00	30.052 
22:30	62.4	62.4	62.4	85	57.8	0	0	---	0.00	30.053 
22:35	62.3	62.3	62.3	85	57.7	0	0	---	0.00	30.054 
22:40	62.1	62.1	62.1	86	57.9	0	0	---	0.00	30.054 
22:45	62.0	62.0	62.0	86	57.8	0	0	---	0.00	30.054 
22:50	61.8	61.8	61.8	86	57.6	0	1	270	0.00	30.055 
22:55	61.6	61.6	61.6	87	57.7	0	0	---	0.00	30.054 
23:00	61.5	61.5	61.5	87	57.6	0	0	---	0.00	30.055 
23:05	61.3	61.3	61.3	87	57.4	0	0	---	0.00	30.055 
23:10	61.2	61.2	61.2	87	57.3	0	0	---	0.00	30.054 
23:15	61.2	61.2	61.2	88	57.6	0	0	---	0.00	30.054 
23:20	61.0	61.0	61.0	88	57.4	0	0	---	0.00	30.052 
23:25	60.9	60.9	60.9	88	57.3	0	0	---	0.00	30.051 
23:30	60.9	60.9	60.9	88	57.3	0	2	270	0.00	30.052 
23:35	60.7	60.7	60.7	88	57.1	0	0	---	0.00	30.053 
23:40	60.5	60.5	60.5	89	57.2	0	0	---	0.00	30.053 
23:45	60.5	60.5	60.5	89	57.2	0	0	---	0.00	30.053 
23:50	60.4	60.4	60.4	89	57.1	0	0	---	0.00	30.054 
23:55	60.2	60.2	60.2	89	56.9	0	1	270	0.00	30.053 

CoCoRaHS
IN-AL-39
A2 Web Hosting
Creative Commons License
GoDaddy
Look for:

loaded 2017-12-12 07:11:33 • last modified 2010-11-18 10:43:29
Privacy PolicyDisclaimer
• wx.awcolley.com is powered by PmWiki v.2002016 •
• all content (unless otherwise noted) © 2017 A W Colley